sensor_id;sensor_type;location;lat;lon;timestamp;temperature;humidity
6518;DHT22;3292;48.944;9.240;2023-02-28T00:00:08;-1.10;99.90
6518;DHT22;3292;48.944;9.240;2023-02-28T00:02:36;-1.20;99.90
6518;DHT22;3292;48.944;9.240;2023-02-28T00:05:04;-1.10;99.90
6518;DHT22;3292;48.944;9.240;2023-02-28T00:07:31;-1.10;99.90
6518;DHT22;3292;48.944;9.240;2023-02-28T00:09:58;-1.20;99.90
6518;DHT22;3292;48.944;9.240;2023-02-28T00:12:30;-1.10;99.90
6518;DHT22;3292;48.944;9.240;2023-02-28T00:14:57;-1.20;99.90
6518;DHT22;3292;48.944;9.240;2023-02-28T00:17:24;-1.20;99.90
6518;DHT22;3292;48.944;9.240;2023-02-28T00:19:51;-1.10;99.90
6518;DHT22;3292;48.944;9.240;2023-02-28T00:22:20;-1.10;99.90
6518;DHT22;3292;48.944;9.240;2023-02-28T00:24:47;-1.20;99.90
6518;DHT22;3292;48.944;9.240;2023-02-28T00:27:14;-1.20;99.90
6518;DHT22;3292;48.944;9.240;2023-02-28T00:29:42;-1.20;99.90
6518;DHT22;3292;48.944;9.240;2023-02-28T00:32:09;-1.20;99.90
6518;DHT22;3292;48.944;9.240;2023-02-28T00:34:36;-1.20;99.90
6518;DHT22;3292;48.944;9.240;2023-02-28T00:37:04;-1.20;99.90
6518;DHT22;3292;48.944;9.240;2023-02-28T00:39:31;-1.20;99.90
6518;DHT22;3292;48.944;9.240;2023-02-28T00:41:59;-1.20;99.90
6518;DHT22;3292;48.944;9.240;2023-02-28T00:44:26;-1.20;99.90
6518;DHT22;3292;48.944;9.240;2023-02-28T00:46:54;-1.10;99.90
6518;DHT22;3292;48.944;9.240;2023-02-28T00:49:22;-1.20;99.90
6518;DHT22;3292;48.944;9.240;2023-02-28T00:51:49;-1.10;99.90
6518;DHT22;3292;48.944;9.240;2023-02-28T00:54:17;-1.10;99.90
6518;DHT22;3292;48.944;9.240;2023-02-28T00:56:43;-1.20;99.90
6518;DHT22;3292;48.944;9.240;2023-02-28T00:59:11;-1.10;99.90
6518;DHT22;3292;48.944;9.240;2023-02-28T01:01:38;-1.10;99.90
6518;DHT22;3292;48.944;9.240;2023-02-28T01:04:07;-1.10;99.90
6518;DHT22;3292;48.944;9.240;2023-02-28T01:06:33;-1.10;99.90
6518;DHT22;3292;48.944;9.240;2023-02-28T01:09:01;-1.20;99.90
6518;DHT22;3292;48.944;9.240;2023-02-28T01:11:28;-1.20;99.90
6518;DHT22;3292;48.944;9.240;2023-02-28T01:13:55;-1.20;99.90
6518;DHT22;3292;48.944;9.240;2023-02-28T01:16:22;-1.20;99.90
6518;DHT22;3292;48.944;9.240;2023-02-28T01:18:49;-1.20;99.90
6518;DHT22;3292;48.944;9.240;2023-02-28T01:21:19;-1.30;99.90
6518;DHT22;3292;48.944;9.240;2023-02-28T01:23:47;-1.20;99.90
6518;DHT22;3292;48.944;9.240;2023-02-28T01:26:15;-1.20;99.90
6518;DHT22;3292;48.944;9.240;2023-02-28T01:28:43;-1.30;99.90
6518;DHT22;3292;48.944;9.240;2023-02-28T01:31:10;-1.30;99.90
6518;DHT22;3292;48.944;9.240;2023-02-28T01:33:38;-1.20;99.90
6518;DHT22;3292;48.944;9.240;2023-02-28T01:36:06;-1.20;99.90
6518;DHT22;3292;48.944;9.240;2023-02-28T01:38:35;-1.30;99.90
6518;DHT22;3292;48.944;9.240;2023-02-28T01:41:02;-1.30;99.90
6518;DHT22;3292;48.944;9.240;2023-02-28T01:43:30;-1.20;99.90
6518;DHT22;3292;48.944;9.240;2023-02-28T01:45:58;-1.20;99.90
6518;DHT22;3292;48.944;9.240;2023-02-28T01:48:27;-1.30;99.90
6518;DHT22;3292;48.944;9.240;2023-02-28T01:50:57;-1.30;99.90
6518;DHT22;3292;48.944;9.240;2023-02-28T01:53:31;-1.30;99.90
6518;DHT22;3292;48.944;9.240;2023-02-28T01:56:00;-1.40;99.90
6518;DHT22;3292;48.944;9.240;2023-02-28T01:58:28;-1.40;99.90
6518;DHT22;3292;48.944;9.240;2023-02-28T02:00:55;-1.40;99.90
6518;DHT22;3292;48.944;9.240;2023-02-28T02:03:23;-1.50;99.90
6518;DHT22;3292;48.944;9.240;2023-02-28T02:05:50;-1.50;99.90
6518;DHT22;3292;48.944;9.240;2023-02-28T02:08:21;-1.50;99.90
6518;DHT22;3292;48.944;9.240;2023-02-28T02:10:50;-1.50;99.90
6518;DHT22;3292;48.944;9.240;2023-02-28T02:13:37;-1.60;99.90
6518;DHT22;3292;48.944;9.240;2023-02-28T02:16:18;-1.50;99.90
6518;DHT22;3292;48.944;9.240;2023-02-28T02:18:52;-1.50;99.90
6518;DHT22;3292;48.944;9.240;2023-02-28T02:27:59;-1.70;99.90
6518;DHT22;3292;48.944;9.240;2023-02-28T02:34:04;-1.80;99.90
6518;DHT22;3292;48.944;9.240;2023-02-28T02:36:35;-1.80;99.90
6518;DHT22;3292;48.944;9.240;2023-02-28T02:39:11;-1.80;99.90
6518;DHT22;3292;48.944;9.240;2023-02-28T02:41:46;-1.80;99.90
6518;DHT22;3292;48.944;9.240;2023-02-28T02:44:18;-1.70;99.90
6518;DHT22;3292;48.944;9.240;2023-02-28T02:46:49;-1.70;99.90
6518;DHT22;3292;48.944;9.240;2023-02-28T02:49:21;-1.70;99.90
6518;DHT22;3292;48.944;9.240;2023-02-28T02:51:49;-1.70;99.90
6518;DHT22;3292;48.944;9.240;2023-02-28T02:54:21;-1.70;99.90
6518;DHT22;3292;48.944;9.240;2023-02-28T02:56:50;-1.70;99.90
6518;DHT22;3292;48.944;9.240;2023-02-28T02:59:21;-1.70;99.90
6518;DHT22;3292;48.944;9.240;2023-02-28T03:01:52;-1.70;99.90
6518;DHT22;3292;48.944;9.240;2023-02-28T03:04:22;-1.70;99.90
6518;DHT22;3292;48.944;9.240;2023-02-28T03:06:51;-1.70;99.90
6518;DHT22;3292;48.944;9.240;2023-02-28T03:09:20;-1.60;99.90
6518;DHT22;3292;48.944;9.240;2023-02-28T03:11:47;-1.70;99.90
6518;DHT22;3292;48.944;9.240;2023-02-28T03:14:30;-1.70;99.90
6518;DHT22;3292;48.944;9.240;2023-02-28T03:17:18;-1.60;99.90
6518;DHT22;3292;48.944;9.240;2023-02-28T03:19:54;-1.60;99.90
6518;DHT22;3292;48.944;9.240;2023-02-28T03:22:37;-1.60;99.90
6518;DHT22;3292;48.944;9.240;2023-02-28T03:25:10;-1.60;99.90
6518;DHT22;3292;48.944;9.240;2023-02-28T03:27:42;-1.50;99.90
6518;DHT22;3292;48.944;9.240;2023-02-28T03:30:18;-1.40;99.90
6518;DHT22;3292;48.944;9.240;2023-02-28T03:32:53;-1.40;99.90
6518;DHT22;3292;48.944;9.240;2023-02-28T03:35:24;-1.40;99.90
6518;DHT22;3292;48.944;9.240;2023-02-28T03:37:56;-1.40;99.90
6518;DHT22;3292;48.944;9.240;2023-02-28T03:40:30;-1.30;99.90
6518;DHT22;3292;48.944;9.240;2023-02-28T03:43:03;-1.30;99.90
6518;DHT22;3292;48.944;9.240;2023-02-28T03:45:35;-1.30;99.90
6518;DHT22;3292;48.944;9.240;2023-02-28T03:48:08;-1.20;99.90
6518;DHT22;3292;48.944;9.240;2023-02-28T03:50:39;-1.20;99.90
6518;DHT22;3292;48.944;9.240;2023-02-28T03:53:09;-1.20;99.90
6518;DHT22;3292;48.944;9.240;2023-02-28T03:55:40;-1.10;99.90
6518;DHT22;3292;48.944;9.240;2023-02-28T03:58:15;-1.20;99.90
6518;DHT22;3292;48.944;9.240;2023-02-28T04:00:46;-1.10;99.90
6518;DHT22;3292;48.944;9.240;2023-02-28T04:03:14;-1.10;99.90
6518;DHT22;3292;48.944;9.240;2023-02-28T04:05:50;-1.10;99.90
6518;DHT22;3292;48.944;9.240;2023-02-28T04:08:17;-1.10;99.90
6518;DHT22;3292;48.944;9.240;2023-02-28T04:10:50;-1.10;99.90
6518;DHT22;3292;48.944;9.240;2023-02-28T04:13:18;-1.00;99.90
6518;DHT22;3292;48.944;9.240;2023-02-28T04:15:44;-1.00;99.90
6518;DHT22;3292;48.944;9.240;2023-02-28T04:18:11;-1.00;99.90
6518;DHT22;3292;48.944;9.240;2023-02-28T04:20:38;-1.00;99.90
6518;DHT22;3292;48.944;9.240;2023-02-28T04:23:06;-1.00;99.90
6518;DHT22;3292;48.944;9.240;2023-02-28T04:25:33;-1.00;99.90
6518;DHT22;3292;48.944;9.240;2023-02-28T04:28:00;-1.00;99.90
6518;DHT22;3292;48.944;9.240;2023-02-28T04:30:26;-1.00;99.90
6518;DHT22;3292;48.944;9.240;2023-02-28T04:32:55;-1.00;99.90
6518;DHT22;3292;48.944;9.240;2023-02-28T04:35:21;-0.90;99.90
6518;DHT22;3292;48.944;9.240;2023-02-28T04:37:48;-1.00;99.90
6518;DHT22;3292;48.944;9.240;2023-02-28T04:40:17;-1.00;99.90
6518;DHT22;3292;48.944;9.240;2023-02-28T04:42:43;-1.00;99.90
6518;DHT22;3292;48.944;9.240;2023-02-28T04:45:10;-1.00;99.90
6518;DHT22;3292;48.944;9.240;2023-02-28T04:47:37;-1.00;99.90
6518;DHT22;3292;48.944;9.240;2023-02-28T04:50:05;-1.00;99.90
6518;DHT22;3292;48.944;9.240;2023-02-28T04:52:31;-1.00;99.90
6518;DHT22;3292;48.944;9.240;2023-02-28T04:54:58;-0.90;99.90
6518;DHT22;3292;48.944;9.240;2023-02-28T04:57:26;-1.00;99.90
6518;DHT22;3292;48.944;9.240;2023-02-28T04:59:53;-0.90;99.90
6518;DHT22;3292;48.944;9.240;2023-02-28T05:02:20;-1.00;99.90
6518;DHT22;3292;48.944;9.240;2023-02-28T05:04:47;-1.00;99.90
6518;DHT22;3292;48.944;9.240;2023-02-28T05:07:13;-0.90;99.90
6518;DHT22;3292;48.944;9.240;2023-02-28T05:09:40;-0.90;99.90
6518;DHT22;3292;48.944;9.240;2023-02-28T05:12:08;-0.90;99.90
6518;DHT22;3292;48.944;9.240;2023-02-28T05:14:37;-0.90;99.90
6518;DHT22;3292;48.944;9.240;2023-02-28T05:17:03;-0.90;99.90
6518;DHT22;3292;48.944;9.240;2023-02-28T05:19:30;-0.90;99.90
6518;DHT22;3292;48.944;9.240;2023-02-28T05:21:57;-0.90;99.90
6518;DHT22;3292;48.944;9.240;2023-02-28T05:24:24;-0.90;99.90
6518;DHT22;3292;48.944;9.240;2023-02-28T05:26:52;-0.90;99.90
6518;DHT22;3292;48.944;9.240;2023-02-28T05:29:20;-0.90;99.90
6518;DHT22;3292;48.944;9.240;2023-02-28T05:31:48;-0.90;99.90
6518;DHT22;3292;48.944;9.240;2023-02-28T05:34:15;-0.90;99.90
6518;DHT22;3292;48.944;9.240;2023-02-28T05:36:42;-0.90;99.90
6518;DHT22;3292;48.944;9.240;2023-02-28T05:39:09;-0.90;99.90
6518;DHT22;3292;48.944;9.240;2023-02-28T05:41:39;-0.90;99.90
6518;DHT22;3292;48.944;9.240;2023-02-28T05:44:06;-0.90;99.90
6518;DHT22;3292;48.944;9.240;2023-02-28T05:46:33;-0.90;99.90
6518;DHT22;3292;48.944;9.240;2023-02-28T05:49:03;-0.90;99.90
6518;DHT22;3292;48.944;9.240;2023-02-28T05:51:30;-0.90;99.90
6518;DHT22;3292;48.944;9.240;2023-02-28T05:53:59;-0.90;99.90
6518;DHT22;3292;48.944;9.240;2023-02-28T05:56:27;-0.90;99.90
6518;DHT22;3292;48.944;9.240;2023-02-28T05:58:54;-0.90;99.90
6518;DHT22;3292;48.944;9.240;2023-02-28T06:01:24;-0.80;99.90
6518;DHT22;3292;48.944;9.240;2023-02-28T06:03:51;-0.80;99.90
6518;DHT22;3292;48.944;9.240;2023-02-28T06:06:19;-0.80;99.90
6518;DHT22;3292;48.944;9.240;2023-02-28T06:08:46;-0.80;99.90
6518;DHT22;3292;48.944;9.240;2023-02-28T06:11:12;-0.80;99.90
6518;DHT22;3292;48.944;9.240;2023-02-28T06:13:39;-0.90;99.90
6518;DHT22;3292;48.944;9.240;2023-02-28T06:16:07;-0.80;99.90
6518;DHT22;3292;48.944;9.240;2023-02-28T06:18:34;-0.80;99.90
6518;DHT22;3292;48.944;9.240;2023-02-28T06:21:01;-0.80;99.90
6518;DHT22;3292;48.944;9.240;2023-02-28T06:23:29;-0.80;99.90
6518;DHT22;3292;48.944;9.240;2023-02-28T06:25:56;-0.90;99.90
6518;DHT22;3292;48.944;9.240;2023-02-28T06:28:24;-0.80;99.90
6518;DHT22;3292;48.944;9.240;2023-02-28T06:30:51;-0.70;99.90
6518;DHT22;3292;48.944;9.240;2023-02-28T06:33:18;-0.70;99.90
6518;DHT22;3292;48.944;9.240;2023-02-28T06:35:46;-0.70;99.90
6518;DHT22;3292;48.944;9.240;2023-02-28T06:38:13;-0.70;99.90
6518;DHT22;3292;48.944;9.240;2023-02-28T06:40:41;-0.70;99.90
6518;DHT22;3292;48.944;9.240;2023-02-28T06:43:09;-0.70;99.90
6518;DHT22;3292;48.944;9.240;2023-02-28T06:45:41;-0.80;99.90
6518;DHT22;3292;48.944;9.240;2023-02-28T06:48:08;-0.70;99.90
6518;DHT22;3292;48.944;9.240;2023-02-28T06:50:35;-0.70;99.90
6518;DHT22;3292;48.944;9.240;2023-02-28T06:53:02;-0.70;99.90
6518;DHT22;3292;48.944;9.240;2023-02-28T06:55:29;-0.70;99.90
6518;DHT22;3292;48.944;9.240;2023-02-28T06:57:57;-0.70;99.90
6518;DHT22;3292;48.944;9.240;2023-02-28T07:00:24;-0.70;99.90
6518;DHT22;3292;48.944;9.240;2023-02-28T07:02:51;-0.70;99.90
6518;DHT22;3292;48.944;9.240;2023-02-28T07:05:19;-0.70;99.90
6518;DHT22;3292;48.944;9.240;2023-02-28T07:07:46;-0.70;99.90
6518;DHT22;3292;48.944;9.240;2023-02-28T07:10:13;-0.60;99.90
6518;DHT22;3292;48.944;9.240;2023-02-28T07:12:42;-0.60;99.90
6518;DHT22;3292;48.944;9.240;2023-02-28T07:15:11;-0.60;99.90
6518;DHT22;3292;48.944;9.240;2023-02-28T07:17:38;-0.70;99.90
6518;DHT22;3292;48.944;9.240;2023-02-28T07:20:05;-0.70;99.90
6518;DHT22;3292;48.944;9.240;2023-02-28T07:22:32;-0.60;99.90
6518;DHT22;3292;48.944;9.240;2023-02-28T07:24:59;-0.50;99.90
6518;DHT22;3292;48.944;9.240;2023-02-28T07:27:26;-0.50;99.90
6518;DHT22;3292;48.944;9.240;2023-02-28T07:29:53;-0.50;99.90
6518;DHT22;3292;48.944;9.240;2023-02-28T07:32:21;-0.50;99.90
6518;DHT22;3292;48.944;9.240;2023-02-28T07:34:48;-0.50;99.90
6518;DHT22;3292;48.944;9.240;2023-02-28T07:37:15;-0.50;99.90
6518;DHT22;3292;48.944;9.240;2023-02-28T07:39:42;-0.50;99.90
6518;DHT22;3292;48.944;9.240;2023-02-28T07:42:09;-0.50;99.90
6518;DHT22;3292;48.944;9.240;2023-02-28T07:44:37;-0.50;99.90
6518;DHT22;3292;48.944;9.240;2023-02-28T07:47:06;-0.50;99.90
6518;DHT22;3292;48.944;9.240;2023-02-28T07:49:36;-0.50;99.90
6518;DHT22;3292;48.944;9.240;2023-02-28T07:52:03;-0.50;99.90
6518;DHT22;3292;48.944;9.240;2023-02-28T07:54:30;-0.40;99.90
6518;DHT22;3292;48.944;9.240;2023-02-28T07:56:57;-0.40;99.90
6518;DHT22;3292;48.944;9.240;2023-02-28T07:59:24;-0.40;99.90
6518;DHT22;3292;48.944;9.240;2023-02-28T08:01:51;-0.40;99.90
6518;DHT22;3292;48.944;9.240;2023-02-28T08:04:18;-0.30;99.90
6518;DHT22;3292;48.944;9.240;2023-02-28T08:06:46;-0.30;99.90
6518;DHT22;3292;48.944;9.240;2023-02-28T08:09:13;-0.30;99.90
6518;DHT22;3292;48.944;9.240;2023-02-28T08:11:40;-0.20;99.90
6518;DHT22;3292;48.944;9.240;2023-02-28T08:14:07;-0.20;99.90
6518;DHT22;3292;48.944;9.240;2023-02-28T08:16:33;-0.20;99.90
6518;DHT22;3292;48.944;9.240;2023-02-28T08:19:00;-0.20;99.90
6518;DHT22;3292;48.944;9.240;2023-02-28T08:21:27;-0.10;99.90
6518;DHT22;3292;48.944;9.240;2023-02-28T08:23:55;-0.10;99.90
6518;DHT22;3292;48.944;9.240;2023-02-28T08:26:22;-0.10;99.90
6518;DHT22;3292;48.944;9.240;2023-02-28T08:28:49;0.10;99.90
6518;DHT22;3292;48.944;9.240;2023-02-28T08:31:17;0.20;99.90
6518;DHT22;3292;48.944;9.240;2023-02-28T08:33:44;0.20;99.90
6518;DHT22;3292;48.944;9.240;2023-02-28T08:36:12;0.30;99.90
6518;DHT22;3292;48.944;9.240;2023-02-28T08:38:40;0.30;99.90
6518;DHT22;3292;48.944;9.240;2023-02-28T08:41:10;0.20;99.90
6518;DHT22;3292;48.944;9.240;2023-02-28T08:43:38;0.20;99.90
6518;DHT22;3292;48.944;9.240;2023-02-28T08:46:06;0.20;99.90
6518;DHT22;3292;48.944;9.240;2023-02-28T08:48:34;0.30;99.90
6518;DHT22;3292;48.944;9.240;2023-02-28T08:51:05;0.40;99.90
6518;DHT22;3292;48.944;9.240;2023-02-28T08:53:35;0.50;99.90
6518;DHT22;3292;48.944;9.240;2023-02-28T08:56:04;0.70;99.90
6518;DHT22;3292;48.944;9.240;2023-02-28T08:58:32;0.70;99.90
6518;DHT22;3292;48.944;9.240;2023-02-28T09:01:00;0.80;99.90
6518;DHT22;3292;48.944;9.240;2023-02-28T09:03:27;0.80;99.90
6518;DHT22;3292;48.944;9.240;2023-02-28T09:05:55;0.80;99.90
6518;DHT22;3292;48.944;9.240;2023-02-28T09:08:23;1.00;99.90
6518;DHT22;3292;48.944;9.240;2023-02-28T09:10:50;1.00;99.90
6518;DHT22;3292;48.944;9.240;2023-02-28T09:13:17;1.40;99.90
6518;DHT22;3292;48.944;9.240;2023-02-28T09:15:45;1.70;99.90
6518;DHT22;3292;48.944;9.240;2023-02-28T09:18:13;1.70;99.90
6518;DHT22;3292;48.944;9.240;2023-02-28T09:20:40;1.70;99.90
6518;DHT22;3292;48.944;9.240;2023-02-28T09:23:07;1.70;99.90
6518;DHT22;3292;48.944;9.240;2023-02-28T09:25:34;1.50;99.90
6518;DHT22;3292;48.944;9.240;2023-02-28T09:28:02;1.30;99.90
6518;DHT22;3292;48.944;9.240;2023-02-28T09:30:29;1.30;99.90
6518;DHT22;3292;48.944;9.240;2023-02-28T09:32:58;1.40;99.90
6518;DHT22;3292;48.944;9.240;2023-02-28T09:35:24;1.50;99.90
6518;DHT22;3292;48.944;9.240;2023-02-28T09:37:52;1.50;99.90
6518;DHT22;3292;48.944;9.240;2023-02-28T09:40:21;1.60;99.90
6518;DHT22;3292;48.944;9.240;2023-02-28T09:42:50;1.60;99.90
6518;DHT22;3292;48.944;9.240;2023-02-28T09:45:22;1.70;99.90
6518;DHT22;3292;48.944;9.240;2023-02-28T09:47:53;1.80;99.90
6518;DHT22;3292;48.944;9.240;2023-02-28T09:50:29;1.90;99.90
6518;DHT22;3292;48.944;9.240;2023-02-28T09:52:59;1.90;99.90
6518;DHT22;3292;48.944;9.240;2023-02-28T09:55:30;1.90;99.90
6518;DHT22;3292;48.944;9.240;2023-02-28T09:58:00;1.90;99.90
6518;DHT22;3292;48.944;9.240;2023-02-28T10:00:33;2.00;99.90
6518;DHT22;3292;48.944;9.240;2023-02-28T10:03:27;2.00;99.90
6518;DHT22;3292;48.944;9.240;2023-02-28T10:05:59;1.90;99.90
6518;DHT22;3292;48.944;9.240;2023-02-28T10:08:33;2.00;99.90
6518;DHT22;3292;48.944;9.240;2023-02-28T10:11:03;1.90;99.90
6518;DHT22;3292;48.944;9.240;2023-02-28T10:13:35;1.90;99.90
6518;DHT22;3292;48.944;9.240;2023-02-28T10:16:06;1.80;99.90
6518;DHT22;3292;48.944;9.240;2023-02-28T10:18:41;1.80;99.90
6518;DHT22;3292;48.944;9.240;2023-02-28T10:21:16;1.80;99.90
6518;DHT22;3292;48.944;9.240;2023-02-28T10:23:45;1.90;99.90
6518;DHT22;3292;48.944;9.240;2023-02-28T10:26:14;1.90;99.90
6518;DHT22;3292;48.944;9.240;2023-02-28T10:28:43;1.90;99.90
6518;DHT22;3292;48.944;9.240;2023-02-28T10:31:11;2.00;99.90
6518;DHT22;3292;48.944;9.240;2023-02-28T10:33:40;1.90;99.90
6518;DHT22;3292;48.944;9.240;2023-02-28T10:36:13;2.00;99.90
6518;DHT22;3292;48.944;9.240;2023-02-28T10:38:42;2.20;99.90
6518;DHT22;3292;48.944;9.240;2023-02-28T10:41:10;2.10;99.90
6518;DHT22;3292;48.944;9.240;2023-02-28T10:43:39;2.10;99.90
6518;DHT22;3292;48.944;9.240;2023-02-28T10:46:13;2.10;99.90
6518;DHT22;3292;48.944;9.240;2023-02-28T10:48:42;2.20;99.90
6518;DHT22;3292;48.944;9.240;2023-02-28T10:51:13;2.30;99.90
6518;DHT22;3292;48.944;9.240;2023-02-28T10:53:47;2.40;99.90
6518;DHT22;3292;48.944;9.240;2023-02-28T10:56:17;2.60;99.90
6518;DHT22;3292;48.944;9.240;2023-02-28T10:58:49;2.60;99.90
6518;DHT22;3292;48.944;9.240;2023-02-28T11:01:18;2.70;99.90
6518;DHT22;3292;48.944;9.240;2023-02-28T11:03:45;2.80;99.90
6518;DHT22;3292;48.944;9.240;2023-02-28T11:06:16;3.00;99.90
6518;DHT22;3292;48.944;9.240;2023-02-28T11:08:47;3.10;99.90
6518;DHT22;3292;48.944;9.240;2023-02-28T11:11:14;3.10;99.90
6518;DHT22;3292;48.944;9.240;2023-02-28T11:13:43;3.20;99.90
6518;DHT22;3292;48.944;9.240;2023-02-28T11:16:12;3.40;99.90
6518;DHT22;3292;48.944;9.240;2023-02-28T11:18:42;3.50;99.90
6518;DHT22;3292;48.944;9.240;2023-02-28T11:21:18;3.50;99.90
6518;DHT22;3292;48.944;9.240;2023-02-28T11:23:46;3.50;99.90
6518;DHT22;3292;48.944;9.240;2023-02-28T11:26:14;3.40;99.90
6518;DHT22;3292;48.944;9.240;2023-02-28T11:28:41;3.30;99.90
6518;DHT22;3292;48.944;9.240;2023-02-28T11:31:16;3.30;99.90
6518;DHT22;3292;48.944;9.240;2023-02-28T11:33:46;3.30;99.90
6518;DHT22;3292;48.944;9.240;2023-02-28T11:36:18;3.30;99.90
6518;DHT22;3292;48.944;9.240;2023-02-28T11:38:46;3.30;99.90
6518;DHT22;3292;48.944;9.240;2023-02-28T11:41:37;3.50;99.90
6518;DHT22;3292;48.944;9.240;2023-02-28T11:44:23;3.60;99.90
6518;DHT22;3292;48.944;9.240;2023-02-28T11:46:59;3.60;99.90
6518;DHT22;3292;48.944;9.240;2023-02-28T11:49:33;3.50;99.90
6518;DHT22;3292;48.944;9.240;2023-02-28T11:52:08;3.60;99.90
6518;DHT22;3292;48.944;9.240;2023-02-28T11:54:59;3.70;99.90
6518;DHT22;3292;48.944;9.240;2023-02-28T11:57:43;4.00;99.90
6518;DHT22;3292;48.944;9.240;2023-02-28T12:00:29;4.20;99.90
6518;DHT22;3292;48.944;9.240;2023-02-28T12:03:10;4.40;99.90
6518;DHT22;3292;48.944;9.240;2023-02-28T12:05:45;4.40;99.90
6518;DHT22;3292;48.944;9.240;2023-02-28T12:08:25;4.40;99.90
6518;DHT22;3292;48.944;9.240;2023-02-28T12:11:01;4.20;99.90
6518;DHT22;3292;48.944;9.240;2023-02-28T12:13:38;4.30;99.90
6518;DHT22;3292;48.944;9.240;2023-02-28T12:16:27;4.60;99.90
6518;DHT22;3292;48.944;9.240;2023-02-28T12:19:07;4.90;99.90
6518;DHT22;3292;48.944;9.240;2023-02-28T12:21:46;5.10;99.90
6518;DHT22;3292;48.944;9.240;2023-02-28T12:27:29;5.10;99.90
6518;DHT22;3292;48.944;9.240;2023-02-28T12:30:02;5.20;99.90
6518;DHT22;3292;48.944;9.240;2023-02-28T12:32:35;5.20;99.90
6518;DHT22;3292;48.944;9.240;2023-02-28T12:35:10;5.50;99.90
6518;DHT22;3292;48.944;9.240;2023-02-28T12:37:41;5.50;99.90
6518;DHT22;3292;48.944;9.240;2023-02-28T12:40:13;5.60;99.90
6518;DHT22;3292;48.944;9.240;2023-02-28T12:42:46;5.70;99.90
6518;DHT22;3292;48.944;9.240;2023-02-28T12:45:18;5.80;99.90
6518;DHT22;3292;48.944;9.240;2023-02-28T12:47:49;5.70;99.90
6518;DHT22;3292;48.944;9.240;2023-02-28T12:50:18;5.70;99.90
6518;DHT22;3292;48.944;9.240;2023-02-28T12:52:53;5.80;99.90
6518;DHT22;3292;48.944;9.240;2023-02-28T12:55:26;5.80;99.90
6518;DHT22;3292;48.944;9.240;2023-02-28T12:58:00;6.00;99.90
6518;DHT22;3292;48.944;9.240;2023-02-28T13:00:33;6.00;99.90
6518;DHT22;3292;48.944;9.240;2023-02-28T13:03:38;6.00;99.90
6518;DHT22;3292;48.944;9.240;2023-02-28T13:06:23;5.80;99.90
6518;DHT22;3292;48.944;9.240;2023-02-28T13:09:02;5.80;99.90
6518;DHT22;3292;48.944;9.240;2023-02-28T13:11:32;6.00;99.90
6518;DHT22;3292;48.944;9.240;2023-02-28T13:14:02;6.10;99.90
6518;DHT22;3292;48.944;9.240;2023-02-28T13:16:48;6.30;99.90
6518;DHT22;3292;48.944;9.240;2023-02-28T13:19:20;6.20;99.90
6518;DHT22;3292;48.944;9.240;2023-02-28T13:21:50;6.20;99.90
6518;DHT22;3292;48.944;9.240;2023-02-28T13:24:45;6.30;99.90
6518;DHT22;3292;48.944;9.240;2023-02-28T13:27:31;6.20;99.90
6518;DHT22;3292;48.944;9.240;2023-02-28T13:30:00;6.40;99.90
6518;DHT22;3292;48.944;9.240;2023-02-28T13:32:36;6.40;99.90
6518;DHT22;3292;48.944;9.240;2023-02-28T13:35:15;6.10;99.90
6518;DHT22;3292;48.944;9.240;2023-02-28T13:38:21;6.20;99.90
6518;DHT22;3292;48.944;9.240;2023-02-28T13:40:49;6.50;99.90
6518;DHT22;3292;48.944;9.240;2023-02-28T13:43:17;6.60;99.90
6518;DHT22;3292;48.944;9.240;2023-02-28T13:46:08;6.60;99.90
6518;DHT22;3292;48.944;9.240;2023-02-28T13:48:37;6.50;99.90
6518;DHT22;3292;48.944;9.240;2023-02-28T13:51:38;6.50;99.90
6518;DHT22;3292;48.944;9.240;2023-02-28T13:54:19;6.30;99.90
6518;DHT22;3292;48.944;9.240;2023-02-28T13:56:56;6.20;99.90
6518;DHT22;3292;48.944;9.240;2023-02-28T13:59:29;6.20;99.90
6518;DHT22;3292;48.944;9.240;2023-02-28T14:02:15;6.30;99.90
6518;DHT22;3292;48.944;9.240;2023-02-28T14:05:05;6.30;99.90
6518;DHT22;3292;48.944;9.240;2023-02-28T14:07:37;6.30;99.90
6518;DHT22;3292;48.944;9.240;2023-02-28T14:10:07;6.40;99.90
6518;DHT22;3292;48.944;9.240;2023-02-28T14:12:58;6.20;99.90
6518;DHT22;3292;48.944;9.240;2023-02-28T14:15:49;6.10;99.90
6518;DHT22;3292;48.944;9.240;2023-02-28T14:18:31;6.30;99.90
6518;DHT22;3292;48.944;9.240;2023-02-28T14:21:11;6.30;99.90
6518;DHT22;3292;48.944;9.240;2023-02-28T14:24:02;6.40;99.90
6518;DHT22;3292;48.944;9.240;2023-02-28T14:26:48;6.30;99.90
6518;DHT22;3292;48.944;9.240;2023-02-28T14:29:35;6.40;99.90
6518;DHT22;3292;48.944;9.240;2023-02-28T14:32:12;6.50;99.90
6518;DHT22;3292;48.944;9.240;2023-02-28T14:34:48;6.50;99.90
6518;DHT22;3292;48.944;9.240;2023-02-28T14:37:22;6.40;99.90
6518;DHT22;3292;48.944;9.240;2023-02-28T14:39:52;6.50;99.90
6518;DHT22;3292;48.944;9.240;2023-02-28T14:42:32;6.40;99.90
6518;DHT22;3292;48.944;9.240;2023-02-28T14:45:00;6.50;99.90
6518;DHT22;3292;48.944;9.240;2023-02-28T14:47:30;6.40;99.90
6518;DHT22;3292;48.944;9.240;2023-02-28T14:50:01;6.30;99.90
6518;DHT22;3292;48.944;9.240;2023-02-28T14:52:30;6.30;99.90
6518;DHT22;3292;48.944;9.240;2023-02-28T14:54:59;6.20;99.90
6518;DHT22;3292;48.944;9.240;2023-02-28T14:57:29;6.20;99.90
6518;DHT22;3292;48.944;9.240;2023-02-28T15:00:04;6.20;99.90
6518;DHT22;3292;48.944;9.240;2023-02-28T15:02:37;6.00;99.90
6518;DHT22;3292;48.944;9.240;2023-02-28T15:05:22;6.00;99.90
6518;DHT22;3292;48.944;9.240;2023-02-28T15:08:01;6.10;99.90
6518;DHT22;3292;48.944;9.240;2023-02-28T15:10:28;6.10;99.90
6518;DHT22;3292;48.944;9.240;2023-02-28T15:12:58;6.10;99.90
6518;DHT22;3292;48.944;9.240;2023-02-28T15:15:29;6.00;99.90
6518;DHT22;3292;48.944;9.240;2023-02-28T15:18:05;6.10;99.90
6518;DHT22;3292;48.944;9.240;2023-02-28T15:20:35;6.00;99.90
6518;DHT22;3292;48.944;9.240;2023-02-28T15:23:04;5.90;99.90
6518;DHT22;3292;48.944;9.240;2023-02-28T15:25:31;5.90;99.90
6518;DHT22;3292;48.944;9.240;2023-02-28T15:27:58;5.90;99.90
6518;DHT22;3292;48.944;9.240;2023-02-28T15:30:27;5.90;99.90
6518;DHT22;3292;48.944;9.240;2023-02-28T15:33:19;5.80;99.90
6518;DHT22;3292;48.944;9.240;2023-02-28T15:35:48;5.70;99.90
6518;DHT22;3292;48.944;9.240;2023-02-28T15:38:18;5.70;99.90
6518;DHT22;3292;48.944;9.240;2023-02-28T15:40:46;5.60;99.90
6518;DHT22;3292;48.944;9.240;2023-02-28T15:43:23;5.50;99.90
6518;DHT22;3292;48.944;9.240;2023-02-28T15:45:51;5.50;99.90
6518;DHT22;3292;48.944;9.240;2023-02-28T15:48:21;5.40;99.90
6518;DHT22;3292;48.944;9.240;2023-02-28T15:50:52;5.20;99.90
6518;DHT22;3292;48.944;9.240;2023-02-28T15:53:22;5.20;99.90
6518;DHT22;3292;48.944;9.240;2023-02-28T15:55:55;5.10;99.90
6518;DHT22;3292;48.944;9.240;2023-02-28T15:58:27;5.00;99.90
6518;DHT22;3292;48.944;9.240;2023-02-28T16:01:06;5.00;99.90
6518;DHT22;3292;48.944;9.240;2023-02-28T16:03:40;4.90;99.90
6518;DHT22;3292;48.944;9.240;2023-02-28T16:06:35;4.90;99.90
6518;DHT22;3292;48.944;9.240;2023-02-28T16:09:04;4.80;99.90
6518;DHT22;3292;48.944;9.240;2023-02-28T16:11:34;4.80;99.90
6518;DHT22;3292;48.944;9.240;2023-02-28T16:14:01;4.80;99.90
6518;DHT22;3292;48.944;9.240;2023-02-28T16:16:28;4.70;99.90
6518;DHT22;3292;48.944;9.240;2023-02-28T16:18:57;4.70;99.90
6518;DHT22;3292;48.944;9.240;2023-02-28T16:21:25;4.70;99.90
6518;DHT22;3292;48.944;9.240;2023-02-28T16:23:52;4.60;99.90
6518;DHT22;3292;48.944;9.240;2023-02-28T16:26:21;4.60;99.90
6518;DHT22;3292;48.944;9.240;2023-02-28T16:28:49;4.50;99.90
6518;DHT22;3292;48.944;9.240;2023-02-28T16:31:17;4.50;99.90
6518;DHT22;3292;48.944;9.240;2023-02-28T16:33:44;4.40;99.90
6518;DHT22;3292;48.944;9.240;2023-02-28T16:36:15;4.40;99.90
6518;DHT22;3292;48.944;9.240;2023-02-28T16:38:43;4.30;99.90
6518;DHT22;3292;48.944;9.240;2023-02-28T16:41:12;4.30;99.90
6518;DHT22;3292;48.944;9.240;2023-02-28T16:43:44;4.30;99.90
6518;DHT22;3292;48.944;9.240;2023-02-28T16:46:12;4.20;99.90